Alpine, Oregon
Current Conditions -  °F | °C
As of 7:35 AM on Monday 22 Dec 2014 (Local Time) from KCVO Reporting Station
Overcast Overcast  
Wind Chill: 10°   Ceiling: 5000
Heat Index: 10°   Visibility: 3mi
Dew Point:   Wind: 0mph
Humidity: 87%   Direction: NA
Pressure: 30.35"   Gusts: NA
Location:  44.3398°N, 123.353°W
Report Text: KCVO 221535Z AUTO 00000KT 3SM FEW023 OVC050 10/08 A3035 RMK AO1
Loading
Personal Weather Stations






























Interactive Weather Map New forecast layout! Learn more

10-Day Weather Forecast

Advertisements
Track Severe Weather on mobile